sensor_id;sensor_type;location;lat;lon;timestamp;P1;durP1;ratioP1;P2;durP2;ratioP2
62633;SDS011;48704;50.534;6.442;2023-07-13T00:02:25;5.97;;;0.90;;
62633;SDS011;48704;50.534;6.442;2023-07-13T00:04:51;4.60;;;1.23;;
62633;SDS011;48704;50.534;6.442;2023-07-13T00:07:17;2.95;;;0.93;;
62633;SDS011;48704;50.534;6.442;2023-07-13T00:09:45;5.60;;;1.52;;
62633;SDS011;48704;50.534;6.442;2023-07-13T00:12:29;4.25;;;0.98;;
62633;SDS011;48704;50.534;6.442;2023-07-13T00:14:57;4.25;;;1.10;;
62633;SDS011;48704;50.534;6.442;2023-07-13T00:17:24;6.07;;;1.17;;
62633;SDS011;48704;50.534;6.442;2023-07-13T00:19:49;3.22;;;1.35;;
62633;SDS011;48704;50.534;6.442;2023-07-13T00:22:15;2.60;;;1.10;;
62633;SDS011;48704;50.534;6.442;2023-07-13T00:24:40;3.47;;;1.20;;
62633;SDS011;48704;50.534;6.442;2023-07-13T00:27:07;2.60;;;1.00;;
62633;SDS011;48704;50.534;6.442;2023-07-13T00:29:33;5.20;;;1.25;;
62633;SDS011;48704;50.534;6.442;2023-07-13T00:31:58;4.75;;;1.10;;
62633;SDS011;48704;50.534;6.442;2023-07-13T00:34:24;4.43;;;1.20;;
62633;SDS011;48704;50.534;6.442;2023-07-13T00:36:49;2.65;;;1.10;;
62633;SDS011;48704;50.534;6.442;2023-07-13T00:39:14;4.22;;;1.00;;
62633;SDS011;48704;50.534;6.442;2023-07-13T00:41:39;2.83;;;1.08;;
62633;SDS011;48704;50.534;6.442;2023-07-13T00:44:05;6.45;;;1.70;;
62633;SDS011;48704;50.534;6.442;2023-07-13T00:46:31;3.63;;;1.00;;
62633;SDS011;48704;50.534;6.442;2023-07-13T00:49:00;5.28;;;1.05;;
62633;SDS011;48704;50.534;6.442;2023-07-13T00:51:32;5.15;;;1.20;;
62633;SDS011;48704;50.534;6.442;2023-07-13T00:54:05;5.07;;;1.52;;
62633;SDS011;48704;50.534;6.442;2023-07-13T00:56:34;2.08;;;0.93;;
62633;SDS011;48704;50.534;6.442;2023-07-13T00:59:02;3.65;;;1.00;;
62633;SDS011;48704;50.534;6.442;2023-07-13T01:01:30;5.57;;;1.00;;
62633;SDS011;48704;50.534;6.442;2023-07-13T01:03:55;3.63;;;1.35;;
62633;SDS011;48704;50.534;6.442;2023-07-13T01:06:22;4.85;;;1.42;;
62633;SDS011;48704;50.534;6.442;2023-07-13T01:08:47;3.63;;;0.90;;
62633;SDS011;48704;50.534;6.442;2023-07-13T01:11:13;3.33;;;1.00;;
62633;SDS011;48704;50.534;6.442;2023-07-13T01:13:44;2.80;;;0.90;;
62633;SDS011;48704;50.534;6.442;2023-07-13T01:16:15;2.92;;;0.98;;
62633;SDS011;48704;50.534;6.442;2023-07-13T01:18:51;3.15;;;1.20;;
62633;SDS011;48704;50.534;6.442;2023-07-13T01:21:16;5.95;;;1.10;;
62633;SDS011;48704;50.534;6.442;2023-07-13T01:23:43;4.68;;;0.90;;
62633;SDS011;48704;50.534;6.442;2023-07-13T01:26:09;6.68;;;1.17;;
62633;SDS011;48704;50.534;6.442;2023-07-13T01:28:34;2.72;;;0.90;;
62633;SDS011;48704;50.534;6.442;2023-07-13T01:31:02;5.03;;;1.00;;
62633;SDS011;48704;50.534;6.442;2023-07-13T01:33:28;6.00;;;1.30;;
62633;SDS011;48704;50.534;6.442;2023-07-13T01:35:53;4.38;;;1.33;;
62633;SDS011;48704;50.534;6.442;2023-07-13T01:38:20;4.53;;;1.00;;
62633;SDS011;48704;50.534;6.442;2023-07-13T01:40:47;4.05;;;1.10;;
62633;SDS011;48704;50.534;6.442;2023-07-13T01:43:13;2.20;;;1.00;;
62633;SDS011;48704;50.534;6.442;2023-07-13T01:45:39;5.07;;;0.98;;
62633;SDS011;48704;50.534;6.442;2023-07-13T01:48:04;3.88;;;1.33;;
62633;SDS011;48704;50.534;6.442;2023-07-13T01:50:31;6.13;;;1.02;;
62633;SDS011;48704;50.534;6.442;2023-07-13T01:52:57;5.60;;;1.20;;
62633;SDS011;48704;50.534;6.442;2023-07-13T01:55:22;6.70;;;1.27;;
62633;SDS011;48704;50.534;6.442;2023-07-13T01:57:48;5.35;;;1.13;;
62633;SDS011;48704;50.534;6.442;2023-07-13T02:00:14;4.53;;;1.00;;
62633;SDS011;48704;50.534;6.442;2023-07-13T02:02:39;5.25;;;1.25;;
62633;SDS011;48704;50.534;6.442;2023-07-13T02:05:05;4.40;;;1.10;;
62633;SDS011;48704;50.534;6.442;2023-07-13T02:07:31;2.47;;;1.10;;
62633;SDS011;48704;50.534;6.442;2023-07-13T02:09:57;4.45;;;1.00;;
62633;SDS011;48704;50.534;6.442;2023-07-13T02:12:22;3.45;;;1.10;;
62633;SDS011;48704;50.534;6.442;2023-07-13T02:14:47;5.22;;;1.38;;
62633;SDS011;48704;50.534;6.442;2023-07-13T02:17:13;5.95;;;1.33;;
62633;SDS011;48704;50.534;6.442;2023-07-13T02:19:38;3.72;;;1.10;;
62633;SDS011;48704;50.534;6.442;2023-07-13T02:22:03;3.70;;;1.17;;
62633;SDS011;48704;50.534;6.442;2023-07-13T02:24:29;2.97;;;1.10;;
62633;SDS011;48704;50.534;6.442;2023-07-13T02:26:54;3.13;;;1.15;;
62633;SDS011;48704;50.534;6.442;2023-07-13T02:29:19;4.68;;;1.98;;
62633;SDS011;48704;50.534;6.442;2023-07-13T02:31:45;6.32;;;1.33;;
62633;SDS011;48704;50.534;6.442;2023-07-13T02:34:10;5.22;;;1.48;;
62633;SDS011;48704;50.534;6.442;2023-07-13T02:36:35;5.32;;;1.45;;
62633;SDS011;48704;50.534;6.442;2023-07-13T02:39:01;7.22;;;1.50;;
62633;SDS011;48704;50.534;6.442;2023-07-13T02:41:28;3.85;;;1.30;;
62633;SDS011;48704;50.534;6.442;2023-07-13T02:43:53;4.30;;;1.75;;
62633;SDS011;48704;50.534;6.442;2023-07-13T02:46:19;7.18;;;1.42;;
62633;SDS011;48704;50.534;6.442;2023-07-13T02:48:44;3.95;;;1.73;;
62633;SDS011;48704;50.534;6.442;2023-07-13T02:51:10;5.05;;;1.52;;
62633;SDS011;48704;50.534;6.442;2023-07-13T02:53:36;8.88;;;1.73;;
62633;SDS011;48704;50.534;6.442;2023-07-13T02:56:02;10.40;;;1.50;;
62633;SDS011;48704;50.534;6.442;2023-07-13T02:58:27;6.10;;;1.33;;
62633;SDS011;48704;50.534;6.442;2023-07-13T03:00:53;5.25;;;1.20;;
62633;SDS011;48704;50.534;6.442;2023-07-13T03:03:20;8.18;;;1.90;;
62633;SDS011;48704;50.534;6.442;2023-07-13T03:05:45;4.20;;;1.38;;
62633;SDS011;48704;50.534;6.442;2023-07-13T03:08:14;7.60;;;1.83;;
62633;SDS011;48704;50.534;6.442;2023-07-13T03:10:40;5.20;;;1.25;;
62633;SDS011;48704;50.534;6.442;2023-07-13T03:13:05;4.70;;;1.40;;
62633;SDS011;48704;50.534;6.442;2023-07-13T03:15:31;4.93;;;1.50;;
62633;SDS011;48704;50.534;6.442;2023-07-13T03:17:56;4.22;;;1.20;;
62633;SDS011;48704;50.534;6.442;2023-07-13T03:20:21;4.95;;;1.50;;
62633;SDS011;48704;50.534;6.442;2023-07-13T03:22:47;8.40;;;2.22;;
62633;SDS011;48704;50.534;6.442;2023-07-13T03:25:12;3.65;;;1.35;;
62633;SDS011;48704;50.534;6.442;2023-07-13T03:27:37;7.07;;;1.42;;
62633;SDS011;48704;50.534;6.442;2023-07-13T03:30:03;5.32;;;1.70;;
62633;SDS011;48704;50.534;6.442;2023-07-13T03:32:30;4.40;;;1.50;;
62633;SDS011;48704;50.534;6.442;2023-07-13T03:34:55;7.70;;;1.65;;
62633;SDS011;48704;50.534;6.442;2023-07-13T03:37:20;4.72;;;1.35;;
62633;SDS011;48704;50.534;6.442;2023-07-13T03:39:46;8.73;;;1.60;;
62633;SDS011;48704;50.534;6.442;2023-07-13T03:42:11;6.75;;;1.60;;
62633;SDS011;48704;50.534;6.442;2023-07-13T03:44:36;7.13;;;1.60;;
62633;SDS011;48704;50.534;6.442;2023-07-13T03:47:02;7.82;;;1.50;;
62633;SDS011;48704;50.534;6.442;2023-07-13T03:49:27;3.72;;;1.30;;
62633;SDS011;48704;50.534;6.442;2023-07-13T03:51:52;6.57;;;1.50;;
62633;SDS011;48704;50.534;6.442;2023-07-13T03:54:17;4.25;;;1.70;;
62633;SDS011;48704;50.534;6.442;2023-07-13T03:56:43;9.45;;;1.95;;
62633;SDS011;48704;50.534;6.442;2023-07-13T03:59:08;7.00;;;2.20;;
62633;SDS011;48704;50.534;6.442;2023-07-13T04:01:34;3.85;;;1.27;;
62633;SDS011;48704;50.534;6.442;2023-07-13T04:03:59;5.63;;;1.58;;
62633;SDS011;48704;50.534;6.442;2023-07-13T04:06:28;5.13;;;1.80;;
62633;SDS011;48704;50.534;6.442;2023-07-13T04:08:55;5.47;;;1.67;;
62633;SDS011;48704;50.534;6.442;2023-07-13T04:11:26;8.13;;;1.88;;
62633;SDS011;48704;50.534;6.442;2023-07-13T04:13:53;5.20;;;1.70;;
62633;SDS011;48704;50.534;6.442;2023-07-13T04:16:19;4.90;;;2.05;;
62633;SDS011;48704;50.534;6.442;2023-07-13T04:18:45;5.57;;;1.75;;
62633;SDS011;48704;50.534;6.442;2023-07-13T04:21:12;10.15;;;1.92;;
62633;SDS011;48704;50.534;6.442;2023-07-13T04:23:39;6.70;;;1.85;;
62633;SDS011;48704;50.534;6.442;2023-07-13T04:26:05;7.93;;;1.83;;
62633;SDS011;48704;50.534;6.442;2023-07-13T04:28:31;6.38;;;1.63;;
62633;SDS011;48704;50.534;6.442;2023-07-13T04:30:56;4.07;;;1.50;;
62633;SDS011;48704;50.534;6.442;2023-07-13T04:33:22;7.07;;;1.65;;
62633;SDS011;48704;50.534;6.442;2023-07-13T04:35:51;6.05;;;2.15;;
62633;SDS011;48704;50.534;6.442;2023-07-13T04:40:53;7.82;;;2.17;;
62633;SDS011;48704;50.534;6.442;2023-07-13T04:43:20;4.88;;;1.70;;
62633;SDS011;48704;50.534;6.442;2023-07-13T04:45:45;7.35;;;1.85;;
62633;SDS011;48704;50.534;6.442;2023-07-13T04:48:11;4.65;;;1.55;;
62633;SDS011;48704;50.534;6.442;2023-07-13T04:50:36;3.42;;;1.52;;
62633;SDS011;48704;50.534;6.442;2023-07-13T04:53:02;8.38;;;2.13;;
62633;SDS011;48704;50.534;6.442;2023-07-13T04:55:29;5.28;;;1.70;;
62633;SDS011;48704;50.534;6.442;2023-07-13T04:57:55;10.07;;;1.85;;
62633;SDS011;48704;50.534;6.442;2023-07-13T05:00:21;9.18;;;1.63;;
62633;SDS011;48704;50.534;6.442;2023-07-13T05:02:46;5.68;;;1.50;;
62633;SDS011;48704;50.534;6.442;2023-07-13T05:05:12;8.07;;;1.98;;
62633;SDS011;48704;50.534;6.442;2023-07-13T05:07:37;7.38;;;2.03;;
62633;SDS011;48704;50.534;6.442;2023-07-13T05:10:03;7.32;;;2.13;;
62633;SDS011;48704;50.534;6.442;2023-07-13T05:12:29;4.63;;;1.40;;
62633;SDS011;48704;50.534;6.442;2023-07-13T05:14:54;5.60;;;1.70;;
62633;SDS011;48704;50.534;6.442;2023-07-13T05:17:20;6.15;;;1.60;;
62633;SDS011;48704;50.534;6.442;2023-07-13T05:19:45;7.45;;;2.10;;
62633;SDS011;48704;50.534;6.442;2023-07-13T05:22:10;7.28;;;2.00;;
62633;SDS011;48704;50.534;6.442;2023-07-13T05:24:35;7.68;;;1.98;;
62633;SDS011;48704;50.534;6.442;2023-07-13T05:27:01;6.55;;;1.55;;
62633;SDS011;48704;50.534;6.442;2023-07-13T05:29:26;7.53;;;1.55;;
62633;SDS011;48704;50.534;6.442;2023-07-13T05:31:51;7.78;;;1.60;;
62633;SDS011;48704;50.534;6.442;2023-07-13T05:34:16;7.00;;;1.80;;
62633;SDS011;48704;50.534;6.442;2023-07-13T05:36:42;4.75;;;1.50;;
62633;SDS011;48704;50.534;6.442;2023-07-13T05:39:08;6.68;;;1.70;;
62633;SDS011;48704;50.534;6.442;2023-07-13T05:41:33;5.60;;;1.83;;
62633;SDS011;48704;50.534;6.442;2023-07-13T05:43:58;4.18;;;1.80;;
62633;SDS011;48704;50.534;6.442;2023-07-13T05:46:24;6.45;;;1.58;;
62633;SDS011;48704;50.534;6.442;2023-07-13T05:48:50;4.95;;;1.60;;
62633;SDS011;48704;50.534;6.442;2023-07-13T05:51:15;9.30;;;1.63;;
62633;SDS011;48704;50.534;6.442;2023-07-13T05:53:40;9.95;;;1.83;;
62633;SDS011;48704;50.534;6.442;2023-07-13T05:56:05;3.20;;;1.60;;
62633;SDS011;48704;50.534;6.442;2023-07-13T05:58:31;4.88;;;1.50;;
62633;SDS011;48704;50.534;6.442;2023-07-13T06:01:03;4.95;;;1.83;;
62633;SDS011;48704;50.534;6.442;2023-07-13T06:03:33;4.65;;;1.90;;
62633;SDS011;48704;50.534;6.442;2023-07-13T06:05:59;3.92;;;1.30;;
62633;SDS011;48704;50.534;6.442;2023-07-13T06:08:27;10.35;;;1.80;;
62633;SDS011;48704;50.534;6.442;2023-07-13T06:10:53;3.97;;;1.40;;
62633;SDS011;48704;50.534;6.442;2023-07-13T06:13:18;8.35;;;2.03;;
62633;SDS011;48704;50.534;6.442;2023-07-13T06:15:47;5.30;;;1.60;;
62633;SDS011;48704;50.534;6.442;2023-07-13T06:18:16;5.85;;;1.67;;
62633;SDS011;48704;50.534;6.442;2023-07-13T06:20:41;11.20;;;2.72;;
62633;SDS011;48704;50.534;6.442;2023-07-13T06:23:06;9.52;;;1.83;;
62633;SDS011;48704;50.534;6.442;2023-07-13T06:25:31;3.42;;;1.42;;
62633;SDS011;48704;50.534;6.442;2023-07-13T06:27:57;4.43;;;1.40;;
62633;SDS011;48704;50.534;6.442;2023-07-13T06:30:22;4.47;;;1.88;;
62633;SDS011;48704;50.534;6.442;2023-07-13T06:32:47;6.15;;;1.85;;
62633;SDS011;48704;50.534;6.442;2023-07-13T06:35:13;5.20;;;1.70;;
62633;SDS011;48704;50.534;6.442;2023-07-13T06:37:38;3.28;;;1.40;;
62633;SDS011;48704;50.534;6.442;2023-07-13T06:40:04;4.40;;;1.40;;
62633;SDS011;48704;50.534;6.442;2023-07-13T06:42:30;5.10;;;1.40;;
62633;SDS011;48704;50.534;6.442;2023-07-13T06:44:55;7.53;;;1.50;;
62633;SDS011;48704;50.534;6.442;2023-07-13T06:47:20;7.30;;;1.65;;
62633;SDS011;48704;50.534;6.442;2023-07-13T06:49:45;5.07;;;1.63;;
62633;SDS011;48704;50.534;6.442;2023-07-13T06:52:11;9.25;;;1.80;;
62633;SDS011;48704;50.534;6.442;2023-07-13T06:54:36;7.85;;;1.60;;
62633;SDS011;48704;50.534;6.442;2023-07-13T06:57:01;6.00;;;1.40;;
62633;SDS011;48704;50.534;6.442;2023-07-13T06:59:26;5.00;;;1.50;;
62633;SDS011;48704;50.534;6.442;2023-07-13T07:01:52;7.03;;;1.60;;
62633;SDS011;48704;50.534;6.442;2023-07-13T07:04:17;5.10;;;1.45;;
62633;SDS011;48704;50.534;6.442;2023-07-13T07:06:42;4.68;;;1.77;;
62633;SDS011;48704;50.534;6.442;2023-07-13T07:09:07;5.10;;;1.80;;
62633;SDS011;48704;50.534;6.442;2023-07-13T07:11:34;3.83;;;1.30;;
62633;SDS011;48704;50.534;6.442;2023-07-13T07:13:59;3.40;;;1.42;;
62633;SDS011;48704;50.534;6.442;2023-07-13T07:16:24;5.80;;;1.50;;
62633;SDS011;48704;50.534;6.442;2023-07-13T07:18:50;6.20;;;1.55;;
62633;SDS011;48704;50.534;6.442;2023-07-13T07:21:15;4.60;;;1.65;;
62633;SDS011;48704;50.534;6.442;2023-07-13T07:23:41;5.80;;;1.38;;
62633;SDS011;48704;50.534;6.442;2023-07-13T07:26:07;5.63;;;1.23;;
62633;SDS011;48704;50.534;6.442;2023-07-13T07:28:35;7.47;;;1.50;;
62633;SDS011;48704;50.534;6.442;2023-07-13T07:31:00;4.60;;;1.27;;
62633;SDS011;48704;50.534;6.442;2023-07-13T07:33:26;5.18;;;1.20;;
62633;SDS011;48704;50.534;6.442;2023-07-13T07:35:51;6.05;;;1.30;;
62633;SDS011;48704;50.534;6.442;2023-07-13T07:38:16;6.18;;;1.60;;
62633;SDS011;48704;50.534;6.442;2023-07-13T07:40:42;6.35;;;1.73;;
62633;SDS011;48704;50.534;6.442;2023-07-13T07:43:08;5.57;;;1.40;;
62633;SDS011;48704;50.534;6.442;2023-07-13T07:45:35;4.53;;;1.50;;
62633;SDS011;48704;50.534;6.442;2023-07-13T07:48:02;5.93;;;1.15;;
62633;SDS011;48704;50.534;6.442;2023-07-13T07:50:27;4.43;;;1.50;;
62633;SDS011;48704;50.534;6.442;2023-07-13T07:52:53;4.85;;;1.40;;
62633;SDS011;48704;50.534;6.442;2023-07-13T07:55:21;4.00;;;1.35;;
62633;SDS011;48704;50.534;6.442;2023-07-13T07:57:46;5.82;;;1.85;;
62633;SDS011;48704;50.534;6.442;2023-07-13T08:00:12;6.65;;;1.55;;
62633;SDS011;48704;50.534;6.442;2023-07-13T08:02:37;6.55;;;1.42;;
62633;SDS011;48704;50.534;6.442;2023-07-13T08:05:03;7.50;;;1.63;;
62633;SDS011;48704;50.534;6.442;2023-07-13T08:07:30;4.88;;;1.50;;
62633;SDS011;48704;50.534;6.442;2023-07-13T08:09:56;4.68;;;1.33;;
62633;SDS011;48704;50.534;6.442;2023-07-13T08:12:21;7.18;;;1.35;;
62633;SDS011;48704;50.534;6.442;2023-07-13T08:14:49;4.93;;;1.27;;
62633;SDS011;48704;50.534;6.442;2023-07-13T08:17:18;4.05;;;1.23;;
62633;SDS011;48704;50.534;6.442;2023-07-13T08:19:46;5.53;;;1.23;;
62633;SDS011;48704;50.534;6.442;2023-07-13T08:22:12;7.95;;;1.38;;
62633;SDS011;48704;50.534;6.442;2023-07-13T08:24:37;5.60;;;1.50;;
62633;SDS011;48704;50.534;6.442;2023-07-13T08:27:02;5.97;;;1.90;;
62633;SDS011;48704;50.534;6.442;2023-07-13T08:29:28;3.88;;;1.42;;
62633;SDS011;48704;50.534;6.442;2023-07-13T08:31:53;3.85;;;1.30;;
62633;SDS011;48704;50.534;6.442;2023-07-13T08:34:19;4.63;;;1.30;;
62633;SDS011;48704;50.534;6.442;2023-07-13T08:36:45;4.22;;;1.23;;
62633;SDS011;48704;50.534;6.442;2023-07-13T08:39:10;4.93;;;1.20;;
62633;SDS011;48704;50.534;6.442;2023-07-13T08:41:36;3.92;;;1.23;;
62633;SDS011;48704;50.534;6.442;2023-07-13T08:44:02;5.20;;;1.33;;
62633;SDS011;48704;50.534;6.442;2023-07-13T08:46:36;7.13;;;1.33;;
62633;SDS011;48704;50.534;6.442;2023-07-13T08:49:06;6.53;;;1.50;;
62633;SDS011;48704;50.534;6.442;2023-07-13T08:54:17;4.50;;;1.05;;
62633;SDS011;48704;50.534;6.442;2023-07-13T08:56:47;2.45;;;0.90;;
62633;SDS011;48704;50.534;6.442;2023-07-13T08:59:15;2.47;;;0.93;;
62633;SDS011;48704;50.534;6.442;2023-07-13T09:04:48;4.85;;;1.92;;
62633;SDS011;48704;50.534;6.442;2023-07-13T09:15:39;3.08;;;1.20;;
62633;SDS011;48704;50.534;6.442;2023-07-13T09:20:52;3.88;;;0.98;;
62633;SDS011;48704;50.534;6.442;2023-07-13T09:23:20;5.82;;;1.02;;
62633;SDS011;48704;50.534;6.442;2023-07-13T09:25:48;5.00;;;1.20;;
62633;SDS011;48704;50.534;6.442;2023-07-13T09:28:22;3.08;;;0.93;;
62633;SDS011;48704;50.534;6.442;2023-07-13T09:31:04;3.63;;;1.23;;
62633;SDS011;48704;50.534;6.442;2023-07-13T09:33:41;4.47;;;1.08;;
62633;SDS011;48704;50.534;6.442;2023-07-13T09:36:20;5.63;;;1.15;;
62633;SDS011;48704;50.534;6.442;2023-07-13T09:38:49;2.97;;;1.20;;
62633;SDS011;48704;50.534;6.442;2023-07-13T09:41:43;3.97;;;1.20;;
62633;SDS011;48704;50.534;6.442;2023-07-13T09:44:36;2.53;;;0.90;;
62633;SDS011;48704;50.534;6.442;2023-07-13T09:47:03;2.92;;;0.95;;
62633;SDS011;48704;50.534;6.442;2023-07-13T09:49:41;3.33;;;1.02;;
62633;SDS011;48704;50.534;6.442;2023-07-13T09:52:10;4.57;;;0.95;;
62633;SDS011;48704;50.534;6.442;2023-07-13T09:54:37;5.68;;;1.38;;
62633;SDS011;48704;50.534;6.442;2023-07-13T09:57:03;5.88;;;1.20;;
62633;SDS011;48704;50.534;6.442;2023-07-13T09:59:39;3.42;;;1.00;;
62633;SDS011;48704;50.534;6.442;2023-07-13T10:05:31;3.38;;;0.90;;
62633;SDS011;48704;50.534;6.442;2023-07-13T10:07:50;4.00;;;1.40;;
62633;SDS011;48704;50.534;6.442;2023-07-13T10:10:21;2.88;;;1.02;;
62633;SDS011;48704;50.534;6.442;2023-07-13T10:12:48;4.18;;;0.85;;
62633;SDS011;48704;50.534;6.442;2023-07-13T10:15:15;2.42;;;1.10;;
62633;SDS011;48704;50.534;6.442;2023-07-13T10:17:43;3.50;;;0.88;;
62633;SDS011;48704;50.534;6.442;2023-07-13T10:20:09;2.08;;;0.90;;
62633;SDS011;48704;50.534;6.442;2023-07-13T10:25:25;3.58;;;0.80;;
62633;SDS011;48704;50.534;6.442;2023-07-13T10:27:54;1.55;;;0.73;;
62633;SDS011;48704;50.534;6.442;2023-07-13T10:30:27;3.83;;;0.73;;
62633;SDS011;48704;50.534;6.442;2023-07-13T10:33:00;2.72;;;0.65;;
62633;SDS011;48704;50.534;6.442;2023-07-13T10:35:28;2.45;;;0.75;;
62633;SDS011;48704;50.534;6.442;2023-07-13T10:40:34;2.08;;;0.73;;
62633;SDS011;48704;50.534;6.442;2023-07-13T10:43:04;3.95;;;1.05;;
62633;SDS011;48704;50.534;6.442;2023-07-13T10:45:36;2.85;;;0.80;;
62633;SDS011;48704;50.534;6.442;2023-07-13T10:48:02;3.47;;;1.10;;
62633;SDS011;48704;50.534;6.442;2023-07-13T10:50:29;2.72;;;0.70;;
62633;SDS011;48704;50.534;6.442;2023-07-13T10:53:02;4.30;;;0.93;;
62633;SDS011;48704;50.534;6.442;2023-07-13T10:58:19;2.08;;;0.75;;
62633;SDS011;48704;50.534;6.442;2023-07-13T11:03:32;2.92;;;0.93;;
62633;SDS011;48704;50.534;6.442;2023-07-13T11:06:42;2.65;;;1.20;;
62633;SDS011;48704;50.534;6.442;2023-07-13T11:08:55;2.47;;;0.98;;
62633;SDS011;48704;50.534;6.442;2023-07-13T11:18:44;3.90;;;0.87;;
62633;SDS011;48704;50.534;6.442;2023-07-13T11:21:14;2.90;;;1.10;;
62633;SDS011;48704;50.534;6.442;2023-07-13T11:23:42;3.70;;;1.00;;
62633;SDS011;48704;50.534;6.442;2023-07-13T11:29:14;2.53;;;1.27;;
62633;SDS011;48704;50.534;6.442;2023-07-13T11:31:51;2.08;;;1.05;;
62633;SDS011;48704;50.534;6.442;2023-07-13T11:34:21;4.43;;;1.25;;
62633;SDS011;48704;50.534;6.442;2023-07-13T11:36:52;3.40;;;1.20;;
62633;SDS011;48704;50.534;6.442;2023-07-13T11:39:19;3.90;;;1.10;;
62633;SDS011;48704;50.534;6.442;2023-07-13T11:41:51;4.90;;;1.08;;
62633;SDS011;48704;50.534;6.442;2023-07-13T11:44:21;2.97;;;1.00;;
62633;SDS011;48704;50.534;6.442;2023-07-13T11:46:49;3.20;;;1.20;;
62633;SDS011;48704;50.534;6.442;2023-07-13T11:49:16;6.28;;;2.53;;
62633;SDS011;48704;50.534;6.442;2023-07-13T11:51:43;6.40;;;1.33;;
62633;SDS011;48704;50.534;6.442;2023-07-13T11:54:29;2.38;;;1.00;;
62633;SDS011;48704;50.534;6.442;2023-07-13T11:59:48;2.85;;;1.02;;
62633;SDS011;48704;50.534;6.442;2023-07-13T12:02:17;3.65;;;1.17;;
62633;SDS011;48704;50.534;6.442;2023-07-13T12:04:53;4.30;;;1.08;;
62633;SDS011;48704;50.534;6.442;2023-07-13T12:07:19;4.15;;;1.10;;
62633;SDS011;48704;50.534;6.442;2023-07-13T12:09:44;4.35;;;1.33;;
62633;SDS011;48704;50.534;6.442;2023-07-13T12:12:11;3.63;;;1.20;;
62633;SDS011;48704;50.534;6.442;2023-07-13T12:14:38;3.90;;;1.17;;
62633;SDS011;48704;50.534;6.442;2023-07-13T12:17:18;3.88;;;1.23;;
62633;SDS011;48704;50.534;6.442;2023-07-13T12:19:45;3.75;;;1.30;;
62633;SDS011;48704;50.534;6.442;2023-07-13T12:22:13;3.65;;;1.20;;
62633;SDS011;48704;50.534;6.442;2023-07-13T12:24:41;2.80;;;1.00;;
62633;SDS011;48704;50.534;6.442;2023-07-13T12:27:13;4.88;;;1.00;;
62633;SDS011;48704;50.534;6.442;2023-07-13T12:29:49;3.45;;;1.10;;
62633;SDS011;48704;50.534;6.442;2023-07-13T12:32:23;2.75;;;1.10;;
62633;SDS011;48704;50.534;6.442;2023-07-13T12:34:51;3.22;;;1.20;;
62633;SDS011;48704;50.534;6.442;2023-07-13T12:37:18;3.72;;;1.17;;
62633;SDS011;48704;50.534;6.442;2023-07-13T12:39:45;5.10;;;1.13;;
62633;SDS011;48704;50.534;6.442;2023-07-13T12:44:57;3.35;;;1.00;;
62633;SDS011;48704;50.534;6.442;2023-07-13T12:47:27;2.85;;;0.98;;
62633;SDS011;48704;50.534;6.442;2023-07-13T12:49:54;4.18;;;1.00;;
62633;SDS011;48704;50.534;6.442;2023-07-13T12:52:23;3.22;;;1.05;;
62633;SDS011;48704;50.534;6.442;2023-07-13T12:54:56;2.13;;;0.80;;
62633;SDS011;48704;50.534;6.442;2023-07-13T12:57:24;3.22;;;1.15;;
62633;SDS011;48704;50.534;6.442;2023-07-13T12:59:54;2.50;;;0.90;;
62633;SDS011;48704;50.534;6.442;2023-07-13T13:04:48;2.65;;;1.00;;
62633;SDS011;48704;50.534;6.442;2023-07-13T13:07:13;3.75;;;1.00;;
62633;SDS011;48704;50.534;6.442;2023-07-13T13:09:39;2.63;;;0.90;;
62633;SDS011;48704;50.534;6.442;2023-07-13T13:12:04;1.98;;;1.00;;
62633;SDS011;48704;50.534;6.442;2023-07-13T13:14:31;3.28;;;1.15;;
62633;SDS011;48704;50.534;6.442;2023-07-13T13:16:56;2.22;;;1.00;;
62633;SDS011;48704;50.534;6.442;2023-07-13T13:19:25;2.30;;;0.95;;
62633;SDS011;48704;50.534;6.442;2023-07-13T13:21:54;5.00;;;0.88;;
62633;SDS011;48704;50.534;6.442;2023-07-13T13:24:21;3.20;;;0.98;;
62633;SDS011;48704;50.534;6.442;2023-07-13T13:26:49;3.33;;;0.90;;
62633;SDS011;48704;50.534;6.442;2023-07-13T13:29:17;4.60;;;1.15;;
62633;SDS011;48704;50.534;6.442;2023-07-13T13:31:44;5.25;;;1.20;;
62633;SDS011;48704;50.534;6.442;2023-07-13T13:34:11;4.53;;;0.90;;
62633;SDS011;48704;50.534;6.442;2023-07-13T13:36:38;3.67;;;1.02;;
62633;SDS011;48704;50.534;6.442;2023-07-13T13:39:08;3.10;;;1.02;;
62633;SDS011;48704;50.534;6.442;2023-07-13T13:41:44;3.53;;;1.10;;
62633;SDS011;48704;50.534;6.442;2023-07-13T13:44:09;5.63;;;1.38;;
62633;SDS011;48704;50.534;6.442;2023-07-13T13:46:35;3.30;;;1.25;;
62633;SDS011;48704;50.534;6.442;2023-07-13T13:49:00;4.68;;;1.17;;
62633;SDS011;48704;50.534;6.442;2023-07-13T13:51:26;4.00;;;1.10;;
62633;SDS011;48704;50.534;6.442;2023-07-13T13:53:51;2.88;;;0.98;;
62633;SDS011;48704;50.534;6.442;2023-07-13T13:56:18;2.65;;;0.98;;
62633;SDS011;48704;50.534;6.442;2023-07-13T13:58:44;2.50;;;0.98;;
62633;SDS011;48704;50.534;6.442;2023-07-13T14:01:13;2.55;;;1.10;;
62633;SDS011;48704;50.534;6.442;2023-07-13T14:03:44;2.88;;;1.10;;
62633;SDS011;48704;50.534;6.442;2023-07-13T14:06:11;2.28;;;1.17;;
62633;SDS011;48704;50.534;6.442;2023-07-13T14:08:38;3.20;;;1.30;;
62633;SDS011;48704;50.534;6.442;2023-07-13T14:11:04;4.75;;;1.42;;
62633;SDS011;48704;50.534;6.442;2023-07-13T14:13:36;4.60;;;1.20;;
62633;SDS011;48704;50.534;6.442;2023-07-13T14:16:11;2.30;;;1.13;;
62633;SDS011;48704;50.534;6.442;2023-07-13T14:18:41;3.25;;;1.00;;
62633;SDS011;48704;50.534;6.442;2023-07-13T14:21:10;3.38;;;0.90;;
62633;SDS011;48704;50.534;6.442;2023-07-13T14:23:37;4.75;;;1.33;;
62633;SDS011;48704;50.534;6.442;2023-07-13T14:26:04;2.25;;;1.00;;
62633;SDS011;48704;50.534;6.442;2023-07-13T14:28:35;2.90;;;0.93;;
62633;SDS011;48704;50.534;6.442;2023-07-13T14:31:03;2.08;;;1.02;;
62633;SDS011;48704;50.534;6.442;2023-07-13T14:33:28;2.50;;;1.02;;
62633;SDS011;48704;50.534;6.442;2023-07-13T14:35:56;2.83;;;1.08;;
62633;SDS011;48704;50.534;6.442;2023-07-13T14:38:21;1.95;;;0.93;;
62633;SDS011;48704;50.534;6.442;2023-07-13T14:40:47;3.97;;;1.00;;
62633;SDS011;48704;50.534;6.442;2023-07-13T14:43:13;4.30;;;1.08;;
62633;SDS011;48704;50.534;6.442;2023-07-13T14:45:40;3.95;;;1.00;;
62633;SDS011;48704;50.534;6.442;2023-07-13T14:48:14;3.60;;;1.48;;
62633;SDS011;48704;50.534;6.442;2023-07-13T14:50:43;3.72;;;1.70;;
62633;SDS011;48704;50.534;6.442;2023-07-13T14:53:10;2.55;;;1.13;;
62633;SDS011;48704;50.534;6.442;2023-07-13T14:55:36;2.28;;;1.20;;
62633;SDS011;48704;50.534;6.442;2023-07-13T14:58:01;4.53;;;1.13;;
62633;SDS011;48704;50.534;6.442;2023-07-13T15:00:27;4.38;;;1.25;;
62633;SDS011;48704;50.534;6.442;2023-07-13T15:02:54;3.28;;;1.30;;
62633;SDS011;48704;50.534;6.442;2023-07-13T15:05:31;2.72;;;1.10;;
62633;SDS011;48704;50.534;6.442;2023-07-13T15:08:01;2.90;;;1.02;;
62633;SDS011;48704;50.534;6.442;2023-07-13T15:10:28;5.13;;;1.30;;
62633;SDS011;48704;50.534;6.442;2023-07-13T15:12:58;3.83;;;1.10;;
62633;SDS011;48704;50.534;6.442;2023-07-13T15:15:26;4.78;;;1.35;;
62633;SDS011;48704;50.534;6.442;2023-07-13T15:17:53;3.40;;;1.10;;
62633;SDS011;48704;50.534;6.442;2023-07-13T15:20:19;2.13;;;1.02;;
62633;SDS011;48704;50.534;6.442;2023-07-13T15:22:50;3.50;;;0.90;;
62633;SDS011;48704;50.534;6.442;2023-07-13T15:25:18;2.90;;;1.30;;
62633;SDS011;48704;50.534;6.442;2023-07-13T15:27:45;3.30;;;1.48;;
62633;SDS011;48704;50.534;6.442;2023-07-13T15:30:13;2.40;;;1.00;;
62633;SDS011;48704;50.534;6.442;2023-07-13T15:32:40;3.20;;;1.33;;
62633;SDS011;48704;50.534;6.442;2023-07-13T15:35:17;3.92;;;1.27;;
62633;SDS011;48704;50.534;6.442;2023-07-13T15:37:44;2.45;;;0.95;;
62633;SDS011;48704;50.534;6.442;2023-07-13T15:40:10;2.35;;;1.00;;
62633;SDS011;48704;50.534;6.442;2023-07-13T15:42:37;5.88;;;1.20;;